Rougemont, North Carolina
Current Conditions -  °F | °C
As of 7:35 AM on Monday 22 Dec 2014 (Local Time) from KTDF Reporting Station
Light Rain Light Rain  
Wind Chill: 27°   Ceiling: 600
Heat Index: 34°   Visibility: 2.5mi
Dew Point: 34°   Wind: 8mph
Humidity: 100%   Direction: 30°NNE
Pressure: 30.18"   Gusts: NA
Location:  36.22°N, 78.93°W
Report Text: KTDF 221235Z AUTO 03007KT 2 1/2SM -RA OVC006 01/01 A3018 RMK AO2 P0002
Loading
Personal Weather Stations






























Interactive Weather Map New forecast layout! Learn more

10-Day Weather Forecast

Advertisements
Track Severe Weather on mobile